Fernandopolis, Brazil
Current Conditions -  °F | °C
As of 8:00 PM on Monday 24 Nov 2014 (Local Time) from SBSR Reporting Station
Rain Showers Rain Showers  
Wind Chill: 79°   Ceiling: 8000
Heat Index: 81°   Visibility: 6mi
Dew Point: 68°   Wind: 9mph
Humidity: 69%   Direction: 90°E
Pressure: 29.91"   Gusts: NA
Location:  20.27°S, 50.26°W
Report Text: SBSR 242200Z 09008KT 9999 VCSH SCT025 BKN080 26/20 Q1013
Loading
Personal Weather Stations






























Interactive Weather Map New forecast layout! Learn more

10-Day Weather Forecast

Advertisements
Track Severe Weather on mobile